Time;durP1;ratioP1;P1;durP2;ratioP2;P2;SDS_P1;SDS_P2;PMS_P1;PMS_P2;Temp;Humidity;BMP_temperature;BMP_pressure;BME280_temperature;BME280_humidity;BME280_pressure;Samples;Min_cycle;Max_cycle;Signal;HPM_P1;HPM_P2
2024/04/01 00:01:05;;;;;;;3.70;2.65;;;14.70;66.10;16.30;99169.00;;;;5013575;28;20714;-77
2024/04/01 00:03:32;;;;;;;3.35;2.65;;;14.60;66.10;16.30;99169.00;;;;5013422;28;20323;-76
2024/04/01 00:05:59;;;;;;;5.30;2.47;;;14.60;66.20;16.20;99164.00;;;;5013551;28;20189;-77
2024/04/01 00:08:26;;;;;;;3.20;2.25;;;14.60;66.20;16.20;99156.00;;;;5013771;28;20208;-76
2024/04/01 00:10:53;;;;;;;4.63;2.78;;;14.50;66.00;16.10;99159.00;;;;5012511;28;20569;-76
2024/04/01 00:13:21;;;;;;;8.27;3.45;;;14.50;66.10;16.10;99167.00;;;;5011895;28;20200;-78
2024/04/01 00:15:47;;;;;;;3.90;2.72;;;14.40;66.10;16.10;99156.00;;;;5012573;28;20637;-77
2024/04/01 00:18:14;;;;;;;2.65;1.92;;;14.40;66.20;16.00;99159.00;;;;5011125;28;20193;-77
2024/04/01 00:20:41;;;;;;;3.85;2.65;;;14.30;66.10;16.00;99159.00;;;;5011656;28;20288;-78
2024/04/01 00:23:08;;;;;;;3.42;2.67;;;14.30;66.10;16.00;99150.00;;;;5012142;28;20228;-78
2024/04/01 00:25:34;;;;;;;3.97;2.33;;;14.30;66.10;15.90;99149.00;;;;5012258;28;20642;-77
2024/04/01 00:28:01;;;;;;;4.97;2.63;;;14.20;66.10;15.90;99137.00;;;;5011849;28;20193;-78
2024/04/01 00:30:31;;;;;;;3.15;2.28;;;14.20;66.20;15.80;99149.00;;;;5014517;28;20235;-78
2024/04/01 00:32:58;;;;;;;4.20;2.42;;;14.20;66.20;15.80;99139.00;;;;5031559;28;20250;-78
2024/04/01 00:35:24;;;;;;;3.15;2.30;;;14.10;66.80;15.70;99139.00;;;;5031586;28;20296;-78
2024/04/01 00:37:51;;;;;;;4.28;2.90;;;14.10;66.10;15.70;99146.00;;;;5031457;28;20219;-78
2024/04/01 00:40:17;;;;;;;4.45;2.50;;;14.10;66.10;15.70;99141.00;;;;5031872;28;20200;-78
2024/04/01 00:42:45;;;;;;;3.28;2.38;;;14.00;66.10;15.60;99137.00;;;;5023779;28;20224;-78
2024/04/01 00:45:13;;;;;;;5.80;2.55;;;14.00;66.20;15.60;99130.00;;;;5010649;28;20204;-78
2024/04/01 00:47:43;;;;;;;3.83;2.33;;;13.90;66.20;15.60;99135.00;;;;5011686;28;20235;-77
2024/04/01 00:50:10;;;;;;;3.55;2.13;;;13.90;66.20;15.50;99138.00;;;;5011854;28;20732;-77
2024/04/01 00:52:38;;;;;;;3.83;2.90;;;13.90;66.20;15.50;99143.00;;;;5011813;28;20296;-77
2024/04/01 00:55:04;;;;;;;3.17;2.15;;;13.90;66.20;15.50;99137.00;;;;5011331;28;20201;-79
2024/04/01 00:57:32;;;;;;;4.93;2.58;;;13.80;66.20;15.50;99128.00;;;;5011589;28;20616;-78
2024/04/01 01:00:02;;;;;;;4.57;2.35;;;13.80;66.30;15.40;99119.00;;;;5011771;28;20232;-79
2024/04/01 01:02:29;;;;;;;3.90;2.65;;;13.80;66.30;15.40;99122.00;;;;5011554;28;20401;-78
2024/04/01 01:04:58;;;;;;;4.07;2.28;;;13.70;66.30;15.40;99120.00;;;;5019858;28;20200;-79
2024/04/01 01:07:27;;;;;;;3.92;2.47;;;13.70;66.40;15.40;99112.00;;;;5031179;28;20204;-79
2024/04/01 01:09:53;;;;;;;3.67;2.08;;;13.70;66.40;15.30;99113.00;;;;5018804;28;20247;-77
2024/04/01 01:12:21;;;;;;;3.60;2.20;;;13.70;66.50;15.30;99114.00;;;;5010217;28;20204;-77
2024/04/01 01:14:49;;;;;;;3.97;2.63;;;13.70;66.70;15.30;99115.00;;;;5011486;28;20295;-77
2024/04/01 01:17:16;;;;;;;8.55;2.85;;;13.60;66.60;15.30;99109.00;;;;5011391;28;20205;-77
2024/04/01 01:19:43;;;;;;;5.30;3.10;;;13.60;66.60;15.20;99116.00;;;;5011997;28;20205;-77
2024/04/01 01:22:15;;;;;;;3.08;1.90;;;13.60;66.70;15.20;99121.00;;;;5009884;28;20666;-76
2024/04/01 01:24:41;;;;;;;4.22;2.17;;;13.60;66.70;15.20;99111.00;;;;5010408;28;20197;-77
2024/04/01 01:27:09;;;;;;;4.25;2.58;;;13.50;66.70;15.20;99120.00;;;;5011366;28;20201;-77
2024/04/01 01:29:35;;;;;;;4.57;2.03;;;13.50;66.80;15.20;99115.00;;;;5011256;28;20228;-78
2024/04/01 01:32:02;;;;;;;3.08;1.88;;;13.50;66.80;15.20;99120.00;;;;5011058;28;20193;-78
2024/04/01 01:34:28;;;;;;;5.13;2.33;;;13.50;66.80;15.10;99123.00;;;;5011478;28;20190;-78
2024/04/01 01:36:58;;;;;;;3.08;2.30;;;13.50;66.90;15.10;99127.00;;;;5010745;28;20192;-78
2024/04/01 01:39:25;;;;;;;3.65;2.13;;;13.40;66.80;15.10;99134.00;;;;5022577;28;20224;-78
2024/04/01 01:41:52;;;;;;;2.50;2.30;;;13.50;67.00;15.10;99137.00;;;;5025299;28;20204;-78
2024/04/01 01:44:18;;;;;;;3.90;2.10;;;13.40;67.60;15.10;99141.00;;;;5013785;28;20582;-79
2024/04/01 01:46:46;;;;;;;3.95;2.40;;;13.40;66.90;15.10;99137.00;;;;5014919;28;20678;-78
2024/04/01 01:49:12;;;;;;;4.72;2.20;;;13.40;67.00;15.10;99128.00;;;;5013919;28;20208;-79
2024/04/01 01:51:41;;;;;;;2.58;2.20;;;13.40;66.90;15.00;99128.00;;;;5013590;28;20766;-77
2024/04/01 01:54:08;;;;;;;5.13;2.85;;;13.40;66.90;15.00;99129.00;;;;5014616;28;20400;-77
2024/04/01 01:56:36;;;;;;;3.70;2.33;;;13.30;66.80;15.00;99118.00;;;;5014621;28;20201;-78
2024/04/01 01:59:02;;;;;;;2.78;1.90;;;13.40;66.90;15.00;99127.00;;;;5014427;28;20214;-77
2024/04/01 02:01:29;;;;;;;7.13;2.65;;;13.40;67.00;15.00;99129.00;;;;5014486;28;20267;-78
2024/04/01 02:03:55;;;;;;;3.38;2.05;;;13.30;66.90;15.00;99132.00;;;;5014062;28;20221;-77
2024/04/01 02:06:22;;;;;;;3.03;2.20;;;13.30;66.90;15.00;99125.00;;;;5014251;28;20259;-77
2024/04/01 02:08:49;;;;;;;3.83;2.10;;;13.30;66.90;14.90;99128.00;;;;5014794;28;20205;-78
2024/04/01 02:11:16;;;;;;;5.97;2.10;;;13.30;67.00;15.00;99125.00;;;;5013639;28;20192;-78
2024/04/01 02:13:44;;;;;;;3.22;2.15;;;13.30;67.00;14.90;99131.00;;;;5015243;28;20212;-78
2024/04/01 02:16:12;;;;;;;3.20;2.15;;;13.30;67.00;14.90;99136.00;;;;5013800;28;20247;-78
2024/04/01 02:18:38;;;;;;;3.13;1.90;;;13.20;66.90;14.90;99142.00;;;;4996864;28;20288;-78
2024/04/01 02:21:05;;;;;;;2.60;2.03;;;13.20;66.90;14.90;99145.00;;;;5004524;28;20201;-78
2024/04/01 02:23:31;;;;;;;4.03;1.98;;;13.20;67.00;14.90;99132.00;;;;5014279;28;20311;-78
2024/04/01 02:26:02;;;;;;;2.13;1.90;;;13.20;67.00;14.90;99143.00;;;;5013873;28;20211;-78
2024/04/01 02:28:30;;;;;;;2.00;1.77;;;13.20;67.10;14.90;99140.00;;;;5014365;28;20197;-78
2024/04/01 02:30:58;;;;;;;4.00;2.17;;;13.20;67.10;14.90;99134.00;;;;5014592;28;20693;-78
2024/04/01 02:33:25;;;;;;;5.53;2.42;;;13.20;67.10;14.90;99141.00;;;;5012762;28;20275;-77
2024/04/01 02:35:52;;;;;;;3.33;2.03;;;13.20;67.10;14.90;99134.00;;;;5013801;28;20185;-78
2024/04/01 02:38:18;;;;;;;3.30;1.67;;;13.20;67.10;14.90;99141.00;;;;5013848;28;20240;-78
2024/04/01 02:40:44;;;;;;;2.30;1.80;;;13.20;67.10;14.90;99137.00;;;;5013538;28;20670;-78
2024/04/01 02:43:12;;;;;;;2.10;1.90;;;13.10;67.00;14.80;99137.00;;;;5013516;28;20686;-78
2024/04/01 02:45:38;;;;;;;6.78;1.98;;;13.10;67.10;14.80;99137.00;;;;5012424;28;20677;-78
2024/04/01 02:48:07;;;;;;;2.55;1.98;;;13.20;67.10;14.80;99132.00;;;;5014310;28;20212;-78
2024/04/01 02:50:34;;;;;;;2.67;1.98;;;13.10;67.10;14.80;99139.00;;;;5012911;28;20193;-78
2024/04/01 02:53:01;;;;;;;3.33;1.83;;;13.10;67.10;14.80;99137.00;;;;5013175;28;20213;-78
2024/04/01 02:55:27;;;;;;;3.58;1.73;;;13.20;67.10;14.80;99145.00;;;;5013060;28;20206;-78
2024/04/01 02:57:54;;;;;;;2.83;1.70;;;13.10;67.10;14.80;99143.00;;;;5013732;28;20199;-78
2024/04/01 03:00:22;;;;;;;1.83;1.65;;;13.10;67.80;14.80;99146.00;;;;5012693;28;20239;-78
2024/04/01 03:02:50;;;;;;;2.80;1.70;;;13.20;67.10;14.80;99147.00;;;;5013337;28;20315;-78
2024/04/01 03:05:18;;;;;;;1.92;1.73;;;13.10;67.10;14.80;99145.00;;;;5028562;28;20212;-78
2024/04/01 03:07:47;;;;;;;2.45;1.90;;;13.10;67.10;14.80;99139.00;;;;5012516;28;20729;-78
2024/04/01 03:10:13;;;;;;;2.78;1.60;;;13.10;67.10;14.80;99147.00;;;;5013273;28;20700;-78
2024/04/01 03:12:42;;;;;;;2.53;2.15;;;13.10;67.10;14.80;99147.00;;;;5012820;28;20613;-78
2024/04/01 03:15:10;;;;;;;6.30;1.95;;;13.10;67.10;14.80;99144.00;;;;5011741;28;20201;-78
2024/04/01 03:17:37;;;;;;;1.92;1.60;;;13.10;67.10;14.80;99141.00;;;;5012972;28;20364;-78
2024/04/01 03:20:06;;;;;;;4.03;2.08;;;13.10;67.20;14.80;99136.00;;;;5013349;28;20596;-78
2024/04/01 03:22:35;;;;;;;3.60;2.00;;;13.10;67.20;14.80;99136.00;;;;5012771;28;20205;-77
2024/04/01 03:25:01;;;;;;;2.20;1.85;;;13.10;67.20;14.80;99128.00;;;;5011796;28;20224;-77
2024/04/01 03:27:28;;;;;;;2.47;2.00;;;13.10;67.10;14.80;99125.00;;;;5011174;28;20232;-76
2024/04/01 03:29:54;;;;;;;3.30;1.85;;;13.10;67.10;14.80;99131.00;;;;4993579;28;20227;-77
2024/04/01 03:32:22;;;;;;;2.78;1.63;;;13.10;67.20;14.80;99141.00;;;;4993446;28;20205;-78
2024/04/01 03:34:49;;;;;;;2.33;1.90;;;13.10;67.20;14.80;99137.00;;;;4994377;28;20225;-77
2024/04/01 03:37:16;;;;;;;3.10;1.85;;;13.10;67.20;14.80;99136.00;;;;5014088;28;20215;-78
2024/04/01 03:39:47;;;;;;;2.22;2.03;;;13.10;67.20;14.80;99138.00;;;;5012338;28;20197;-78
2024/04/01 03:42:15;;;;;;;2.38;2.00;;;13.10;67.20;14.80;99137.00;;;;5012369;28;20266;-78
2024/04/01 03:44:42;;;;;;;3.78;2.42;;;13.10;67.10;14.80;99125.00;;;;5012307;28;20225;-78
2024/04/01 03:47:10;;;;;;;2.35;1.98;;;13.10;67.20;14.80;99125.00;;;;5010364;28;20189;-78
2024/04/01 03:49:38;;;;;;;3.67;1.80;;;13.10;67.20;14.80;99128.00;;;;5012082;28;20502;-78
2024/04/01 03:52:05;;;;;;;2.40;2.00;;;13.10;67.10;14.80;99121.00;;;;5012692;28;20199;-78
2024/04/01 03:54:33;;;;;;;2.88;1.80;;;13.00;67.20;14.80;99120.00;;;;5012075;28;20605;-77
2024/04/01 03:57:01;;;;;;;2.85;2.03;;;13.00;67.20;14.70;99124.00;;;;5012632;28;20197;-78
2024/04/01 03:59:28;;;;;;;2.30;2.10;;;13.00;67.20;14.80;99139.00;;;;5012585;28;20201;-77
2024/04/01 04:01:54;;;;;;;2.28;1.83;;;13.00;67.20;14.80;99122.00;;;;5012607;28;20267;-78
2024/04/01 04:04:21;;;;;;;2.78;2.08;;;13.00;67.20;14.80;99119.00;;;;5012187;28;20229;-77
2024/04/01 04:06:47;;;;;;;4.57;2.17;;;13.00;67.30;14.80;99112.00;;;;5012387;28;20203;-77
2024/04/01 04:09:16;;;;;;;4.70;2.00;;;13.00;67.30;14.80;99112.00;;;;5012824;28;20225;-77
2024/04/01 04:11:49;;;;;;;3.85;2.13;;;13.10;67.40;14.80;99117.00;;;;5013227;28;20678;-77
2024/04/01 04:14:20;;;;;;;1.92;1.75;;;13.00;67.40;14.70;99116.00;;;;5012111;28;20196;-77
2024/04/01 04:16:47;;;;;;;3.08;1.60;;;13.10;67.40;14.80;99121.00;;;;5011367;28;20755;-77
2024/04/01 04:19:15;;;;;;;2.25;2.05;;;13.00;67.30;14.80;99121.00;;;;5012790;28;20748;-77
2024/04/01 04:21:41;;;;;;;3.15;2.15;;;13.10;67.40;14.80;99125.00;;;;5008593;28;20205;-78
2024/04/01 04:24:11;;;;;;;1.70;1.60;;;13.10;67.80;14.80;99133.00;;;;5011828;28;20228;-78
2024/04/01 04:26:37;;;;;;;2.22;2.03;;;13.10;68.10;14.80;99132.00;;;;5010635;28;20231;-76
2024/04/01 04:29:05;;;;;;;2.63;2.38;;;13.10;67.50;14.80;99132.00;;;;5020762;28;20291;-77
2024/04/01 04:31:33;;;;;;;3.83;1.63;;;13.10;67.40;14.80;99134.00;;;;5031489;28;20250;-77
2024/04/01 04:34:00;;;;;;;2.88;1.55;;;13.10;67.40;14.80;99143.00;;;;5032176;28;20196;-77
2024/04/01 04:36:27;;;;;;;2.20;1.60;;;13.10;67.40;14.80;99145.00;;;;5016585;28;20189;-77
2024/04/01 04:38:54;;;;;;;2.67;1.80;;;13.10;67.40;14.80;99145.00;;;;5011125;28;20243;-77
2024/04/01 04:41:22;;;;;;;1.85;1.75;;;13.10;67.50;14.80;99137.00;;;;5012076;28;20212;-77
2024/04/01 04:43:49;;;;;;;2.35;1.92;;;13.10;67.50;14.80;99140.00;;;;5011488;28;20275;-77
2024/04/01 04:46:15;;;;;;;2.40;1.77;;;13.10;67.50;14.80;99132.00;;;;5012277;28;20204;-77
2024/04/01 04:48:46;;;;;;;1.90;1.70;;;13.10;67.50;14.80;99133.00;;;;5011862;28;20239;-77
2024/04/01 04:51:12;;;;;;;2.05;1.85;;;13.10;67.50;14.80;99128.00;;;;5011620;28;20193;-77
2024/04/01 04:53:40;;;;;;;3.65;2.10;;;13.10;67.50;14.80;99140.00;;;;5010837;28;20211;-78
2024/04/01 04:56:06;;;;;;;2.47;1.75;;;13.10;67.50;14.80;99142.00;;;;5012040;28;20200;-77
2024/04/01 04:58:35;;;;;;;2.65;1.90;;;13.10;67.50;14.80;99144.00;;;;5011685;28;20222;-78
2024/04/01 05:01:05;;;;;;;2.88;2.15;;;13.10;67.50;14.80;99145.00;;;;5011260;28;20587;-77
2024/04/01 05:03:32;;;;;;;1.88;1.73;;;13.10;67.50;14.80;99139.00;;;;5022814;28;20221;-77
2024/04/01 05:06:01;;;;;;;2.03;1.83;;;13.10;68.20;14.80;99134.00;;;;5031750;28;20642;-77
2024/04/01 05:08:28;;;;;;;2.03;1.83;;;13.10;67.40;14.80;99131.00;;;;5030947;28;20626;-77
2024/04/01 05:10:56;;;;;;;2.80;1.77;;;13.10;67.40;14.80;99133.00;;;;5031600;28;20208;-77
2024/04/01 05:13:23;;;;;;;2.22;2.00;;;13.10;67.50;14.80;99139.00;;;;5031206;28;20218;-77
2024/04/01 05:15:49;;;;;;;3.40;2.03;;;13.10;67.50;14.80;99135.00;;;;5022707;28;20204;-77
2024/04/01 05:18:16;;;;;;;2.33;1.90;;;13.10;67.50;14.80;99145.00;;;;5015032;28;20203;-77
2024/04/01 05:20:44;;;;;;;2.53;1.65;;;13.10;67.50;14.80;99147.00;;;;5028336;28;20212;-77
2024/04/01 05:23:12;;;;;;;2.00;1.80;;;13.10;67.50;14.80;99147.00;;;;5035165;28;20200;-77
2024/04/01 05:25:38;;;;;;;2.60;2.10;;;13.10;67.50;14.80;99155.00;;;;5035321;28;20218;-77
2024/04/01 05:28:06;;;;;;;1.90;1.70;;;13.10;68.30;14.80;99154.00;;;;5034282;28;20612;-77
2024/04/01 05:30:32;;;;;;;2.35;2.15;;;13.10;67.50;14.90;99153.00;;;;5019379;28;20576;-77
2024/04/01 05:32:59;;;;;;;2.92;1.50;;;13.10;67.60;14.90;99150.00;;;;5015382;28;20206;-77
2024/04/01 05:35:25;;;;;;;3.25;1.83;;;13.10;67.60;14.80;99159.00;;;;5015051;28;20696;-78
2024/04/01 05:37:52;;;;;;;3.17;1.80;;;13.10;67.60;14.90;99150.00;;;;5015355;28;20682;-78
2024/04/01 05:40:19;;;;;;;2.22;1.95;;;13.10;67.60;14.90;99160.00;;;;5014972;28;20203;-78
2024/04/01 05:42:46;;;;;;;2.17;1.92;;;13.10;67.70;14.90;99147.00;;;;5014656;28;20227;-77
2024/04/01 05:45:12;;;;;;;3.47;1.90;;;13.10;67.70;14.90;99150.00;;;;5013308;28;20711;-78
2024/04/01 05:47:39;;;;;;;4.78;1.88;;;13.10;67.70;14.90;99159.00;;;;5013992;28;20296;-78
2024/04/01 05:50:06;;;;;;;2.10;1.77;;;13.10;67.70;15.00;99153.00;;;;5015118;28;20197;-77
2024/04/01 05:52:33;;;;;;;3.88;1.95;;;13.20;67.80;15.00;99150.00;;;;5011793;28;20731;-77
2024/04/01 05:55:00;;;;;;;3.15;2.38;;;13.20;67.80;15.00;99149.00;;;;5016676;28;20654;-77
2024/04/01 05:57:28;;;;;;;3.42;1.70;;;13.20;67.80;15.00;99147.00;;;;5012502;28;20732;-77
2024/04/01 05:59:56;;;;;;;2.20;1.83;;;13.20;68.50;15.00;99151.00;;;;5013860;28;20235;-77
2024/04/01 06:02:23;;;;;;;1.60;1.50;;;13.20;67.80;15.00;99160.00;;;;5014667;28;20209;-77
2024/04/01 06:04:49;;;;;;;4.55;2.00;;;13.30;67.90;15.10;99155.00;;;;5014648;28;20589;-78
2024/04/01 06:07:16;;;;;;;2.05;1.85;;;13.20;67.90;15.10;99168.00;;;;5012884;28;20204;-78
2024/04/01 06:09:43;;;;;;;2.25;1.83;;;13.30;67.90;15.10;99165.00;;;;5014537;28;20300;-78
2024/04/01 06:12:10;;;;;;;2.30;1.85;;;13.30;67.90;15.10;99169.00;;;;5031425;28;20204;-78
2024/04/01 06:14:37;;;;;;;1.98;1.77;;;13.30;67.90;15.10;99170.00;;;;5022552;28;20197;-78
2024/04/01 06:17:05;;;;;;;2.05;1.30;;;13.40;68.00;15.10;99172.00;;;;4304438;28;10000479;-78
2024/04/01 06:19:31;;;;;;;1.95;1.70;;;13.40;68.00;15.20;99184.00;;;;4995488;28;20641;-78
2024/04/01 06:21:58;;;;;;;2.58;1.83;;;13.40;68.00;15.20;99180.00;;;;5011129;28;20295;-77
2024/04/01 06:24:24;;;;;;;2.85;1.67;;;13.40;68.00;15.20;99180.00;;;;5010426;28;20319;-77
2024/04/01 06:26:51;;;;;;;3.10;2.20;;;13.40;68.00;15.30;99187.00;;;;5008316;28;20220;-77
2024/04/01 06:29:17;;;;;;;2.65;1.90;;;13.40;68.00;15.30;99190.00;;;;5028482;28;20295;-77
2024/04/01 06:31:45;;;;;;;3.25;1.83;;;13.50;68.10;15.30;99188.00;;;;5024142;28;20287;-77
2024/04/01 06:34:11;;;;;;;1.48;1.38;;;13.50;68.10;15.40;99198.00;;;;5011080;28;20208;-77
2024/04/01 06:36:38;;;;;;;4.20;1.83;;;13.50;68.10;15.40;99198.00;;;;5011067;28;20655;-77
2024/04/01 06:39:06;;;;;;;1.67;1.58;;;13.50;68.70;15.40;99197.00;;;;5010803;28;20205;-77
2024/04/01 06:41:33;;;;;;;2.45;1.75;;;13.60;68.10;15.40;99193.00;;;;5009899;28;20347;-77
2024/04/01 06:43:59;;;;;;;1.63;1.52;;;13.60;68.10;15.50;99196.00;;;;5010924;28;20247;-77
2024/04/01 06:46:26;;;;;;;3.20;2.20;;;13.60;68.10;15.50;99199.00;;;;5017946;28;20208;-77
2024/04/01 06:48:53;;;;;;;3.83;2.00;;;13.60;68.10;15.50;99202.00;;;;4995339;28;20198;-77
2024/04/01 06:51:20;;;;;;;2.17;1.85;;;13.70;68.10;15.50;99201.00;;;;4992660;28;20194;-77
2024/04/01 06:53:46;;;;;;;2.33;1.98;;;13.70;68.10;15.60;99210.00;;;;5009002;28;20209;-77
2024/04/01 06:56:13;;;;;;;1.58;1.48;;;13.70;68.10;15.60;99215.00;;;;4994198;28;20279;-77
2024/04/01 06:58:39;;;;;;;1.58;1.48;;;13.80;68.20;15.60;99212.00;;;;5010883;28;20201;-77
2024/04/01 07:01:07;;;;;;;1.70;1.50;;;13.80;68.20;15.70;99214.00;;;;5010387;28;20221;-77
2024/04/01 07:03:33;;;;;;;2.30;1.48;;;13.80;68.20;15.70;99221.00;;;;5010615;28;20216;-77
2024/04/01 07:06:01;;;;;;;1.90;1.50;;;13.90;68.30;15.70;99215.00;;;;5008856;28;20189;-77
2024/04/01 07:08:27;;;;;;;3.08;1.45;;;13.90;68.20;15.70;99216.00;;;;5010148;28;20204;-77
2024/04/01 07:10:54;;;;;;;1.95;1.55;;;13.90;68.20;15.80;99215.00;;;;5010427;28;20673;-77
2024/04/01 07:13:21;;;;;;;2.25;1.52;;;13.90;68.20;15.80;99213.00;;;;5010436;28;20201;-77
2024/04/01 07:15:48;;;;;;;2.35;1.48;;;14.00;68.30;15.80;99219.00;;;;5003153;28;20233;-77
2024/04/01 07:18:14;;;;;;;1.85;1.58;;;14.00;68.30;15.90;99227.00;;;;5006396;28;20197;-77
2024/04/01 07:20:41;;;;;;;2.70;1.83;;;14.00;68.30;15.90;99228.00;;;;5009954;28;20737;-77
2024/04/01 07:23:08;;;;;;;2.20;2.00;;;14.10;68.20;15.90;99235.00;;;;5004350;28;20197;-76
2024/04/01 07:25:35;;;;;;;2.58;1.60;;;14.10;68.30;16.00;99239.00;;;;4990662;28;20314;-77
2024/04/01 07:28:01;;;;;;;2.22;1.90;;;14.10;68.20;16.00;99231.00;;;;4990707;28;20212;-77
2024/04/01 07:30:29;;;;;;;2.28;1.95;;;14.10;68.20;16.00;99232.00;;;;4991874;28;20198;-77
2024/04/01 07:32:55;;;;;;;2.25;2.03;;;14.20;68.20;16.00;99240.00;;;;5009933;28;20695;-77
2024/04/01 07:35:22;;;;;;;2.33;2.13;;;14.20;68.20;16.10;99237.00;;;;5010579;28;20212;-77
2024/04/01 07:37:48;;;;;;;4.65;3.20;;;14.20;68.20;16.10;99236.00;;;;5009943;28;20193;-77
2024/04/01 07:40:16;;;;;;;2.55;2.22;;;14.30;68.20;16.10;99237.00;;;;5009359;28;20213;-76
2024/04/01 07:42:45;;;;;;;3.33;2.72;;;14.30;68.20;16.10;99249.00;;;;5008203;28;20562;-77
2024/04/01 07:45:12;;;;;;;3.35;2.63;;;14.30;68.10;16.10;99248.00;;;;4990233;28;20586;-77
2024/04/01 07:47:38;;;;;;;3.10;2.35;;;14.30;68.00;16.10;99252.00;;;;5009376;28;20237;-77
2024/04/01 07:50:07;;;;;;;3.90;2.40;;;14.40;68.10;16.10;99249.00;;;;5009534;28;20201;-77
2024/04/01 07:52:33;;;;;;;3.28;2.42;;;14.30;68.00;16.10;99254.00;;;;5009784;28;20248;-77
2024/04/01 07:55:00;;;;;;;3.08;2.30;;;14.30;68.00;16.20;99259.00;;;;5009550;28;20209;-77
2024/04/01 07:57:30;;;;;;;3.65;2.70;;;14.40;68.00;16.10;99259.00;;;;5010233;28;20197;-78
2024/04/01 07:59:57;;;;;;;2.45;2.25;;;14.40;68.60;16.20;99261.00;;;;5009702;28;20286;-77
2024/04/01 08:02:25;;;;;;;2.92;2.60;;;14.40;67.90;16.20;99269.00;;;;4999423;28;20215;-77
2024/04/01 08:04:52;;;;;;;3.10;2.47;;;14.40;67.90;16.20;99267.00;;;;5004013;28;20286;-77
2024/04/01 08:07:19;;;;;;;3.53;2.60;;;14.40;67.80;16.20;99279.00;;;;5008529;28;20890;-78
2024/04/01 08:09:46;;;;;;;3.05;2.70;;;14.50;67.90;16.20;99276.00;;;;5015712;28;20712;-77
2024/04/01 08:12:12;;;;;;;3.05;2.58;;;14.50;67.90;16.20;99288.00;;;;5029011;28;20193;-77
2024/04/01 08:14:40;;;;;;;3.60;2.55;;;14.50;67.90;16.20;99287.00;;;;5028788;28;20739;-77
2024/04/01 08:17:06;;;;;;;3.25;2.95;;;14.40;67.80;16.20;99289.00;;;;5009040;28;20200;-77
2024/04/01 08:19:34;;;;;;;3.13;2.80;;;14.50;67.80;16.20;99292.00;;;;5009348;28;20698;-78
2024/04/01 08:22:00;;;;;;;2.85;2.55;;;14.50;67.80;16.20;99291.00;;;;5007662;28;20689;-78
2024/04/01 08:24:27;;;;;;;3.35;2.80;;;14.50;67.80;16.30;99297.00;;;;5009519;28;20232;-78
2024/04/01 08:26:53;;;;;;;4.25;2.55;;;14.50;67.90;16.30;99307.00;;;;5016363;28;20224;-77
2024/04/01 08:29:20;;;;;;;3.92;2.97;;;14.50;67.90;16.30;99298.00;;;;5028613;28;20204;-77
2024/04/01 08:31:47;;;;;;;3.63;3.05;;;14.60;67.90;16.30;99317.00;;;;5009769;28;20196;-77
2024/04/01 08:34:14;;;;;;;3.40;2.65;;;14.50;67.90;16.30;99319.00;;;;5009326;28;20840;-77
2024/04/01 08:36:40;;;;;;;2.95;2.75;;;14.60;68.00;16.40;99321.00;;;;5009005;28;20212;-78
2024/04/01 08:39:08;;;;;;;3.28;2.97;;;14.60;68.00;16.40;99322.00;;;;5009108;28;20712;-78
2024/04/01 08:41:43;;;;;;;3.55;2.78;;;14.60;67.90;16.30;99316.00;;;;5008256;28;20197;-77
2024/04/01 08:44:14;;;;;;;4.55;2.95;;;14.60;67.80;16.40;99323.00;;;;5009655;28;20628;-78
2024/04/01 08:46:43;;;;;;;3.15;2.83;;;14.70;67.80;16.40;99326.00;;;;5007746;28;20201;-77
2024/04/01 08:49:13;;;;;;;2.90;2.60;;;14.70;67.70;16.40;99327.00;;;;5009019;28;20215;-78
2024/04/01 08:51:41;;;;;;;3.38;3.08;;;14.70;67.70;16.50;99331.00;;;;5009082;28;20211;-78
2024/04/01 08:54:11;;;;;;;3.00;2.75;;;14.70;67.70;16.50;99336.00;;;;5012803;28;20216;-77
2024/04/01 08:56:39;;;;;;;3.88;3.00;;;14.80;67.70;16.50;99336.00;;;;5012789;28;20201;-78
2024/04/01 08:59:07;;;;;;;5.35;3.08;;;14.80;67.80;16.60;99339.00;;;;5012798;28;20295;-77
2024/04/01 09:01:34;;;;;;;3.53;3.05;;;14.80;67.80;16.60;99331.00;;;;5012085;28;20241;-78
2024/04/01 09:04:01;;;;;;;3.47;2.92;;;14.80;67.60;16.60;99332.00;;;;5012572;28;20201;-77
2024/04/01 09:06:29;;;;;;;3.30;3.00;;;14.90;67.70;16.60;99338.00;;;;5012752;28;20380;-77
2024/04/01 09:08:57;;;;;;;3.47;2.97;;;14.90;67.70;16.70;99337.00;;;;5012800;28;20678;-77
2024/04/01 09:11:25;;;;;;;3.83;3.22;;;14.90;67.60;16.70;99336.00;;;;5011717;28;20291;-77
2024/04/01 09:13:53;;;;;;;3.42;2.90;;;14.90;67.50;16.70;99342.00;;;;5012371;28;20212;-77
2024/04/01 09:16:24;;;;;;;3.35;3.05;;;14.90;67.40;16.70;99357.00;;;;5012348;28;20232;-76
2024/04/01 09:18:52;;;;;;;4.28;3.10;;;15.00;67.50;16.80;99366.00;;;;5012830;28;20700;-77
2024/04/01 09:21:21;;;;;;;5.57;3.53;;;15.10;67.60;16.80;99382.00;;;;5012225;28;20683;-77
2024/04/01 09:23:51;;;;;;;3.53;3.20;;;15.10;67.70;16.90;99390.00;;;;5011473;28;20548;-78
2024/04/01 09:26:18;;;;;;;4.72;3.38;;;15.10;67.70;17.00;99385.00;;;;4992642;28;20221;-79
2024/04/01 09:28:45;;;;;;;4.45;3.30;;;15.20;67.70;17.00;99382.00;;;;4992540;28;20205;-76
2024/04/01 09:31:11;;;;;;;5.20;3.42;;;15.20;67.50;17.00;99385.00;;;;5012501;28;20560;-78
2024/04/01 09:33:39;;;;;;;3.92;3.53;;;15.30;67.40;17.10;99378.00;;;;5010858;28;20670;-77
2024/04/01 09:36:07;;;;;;;5.53;3.40;;;15.30;67.30;17.10;99387.00;;;;5013151;28;20211;-78
2024/04/01 09:38:35;;;;;;;3.55;3.25;;;15.30;67.20;17.10;99378.00;;;;5011974;28;20227;-78
2024/04/01 09:41:03;;;;;;;4.85;3.13;;;15.30;67.20;17.20;99385.00;;;;5012091;28;20236;-77
2024/04/01 09:43:32;;;;;;;3.25;2.95;;;15.40;67.20;17.20;99384.00;;;;5011762;28;20197;-77
2024/04/01 09:45:59;;;;;;;3.15;2.85;;;15.50;67.30;17.30;99389.00;;;;5008953;28;20235;-77
2024/04/01 09:48:28;;;;;;;3.13;2.83;;;15.50;67.30;17.30;99394.00;;;;5010361;28;20203;-77
2024/04/01 09:50:56;;;;;;;3.72;2.67;;;15.50;67.20;17.30;99388.00;;;;5011754;28;20573;-78
2024/04/01 09:53:24;;;;;;;3.00;2.30;;;15.60;67.20;17.40;99390.00;;;;5011915;28;20201;-77
2024/04/01 09:57:00;;;;;;;3.08;2.03;;;15.60;67.10;17.30;99386.00;;;;5011709;28;20196;-79
2024/04/01 10:00:15;;;;;;;1.92;1.83;;;15.70;66.70;17.30;99386.00;;;;4950203;29;20196;-78
2024/04/01 10:03:33;;;;;;;4.22;2.17;;;15.70;66.40;17.30;99389.00;;;;4909119;29;20263;-76
2024/04/01 10:06:57;;;;;;;2.13;1.92;;;15.70;66.30;17.30;99389.00;;;;4950527;29;20246;-78
2024/04/01 10:10:09;;;;;;;4.28;2.42;;;15.70;66.20;17.30;99395.00;;;;4950150;28;20676;-78
2024/04/01 10:13:39;;;;;;;2.55;2.30;;;15.70;66.00;17.20;99404.00;;;;4996021;28;20300;-77
2024/04/01 10:16:39;;;;;;;5.30;2.40;;;15.70;65.90;17.20;99408.00;;;;4991922;28;20193;-78
2024/04/01 10:19:44;;;;;;;3.80;2.65;;;15.70;65.80;17.20;99412.00;;;;4994816;28;20253;-78
2024/04/01 10:22:48;;;;;;;2.90;2.55;;;15.60;65.60;17.10;99399.00;;;;5007923;28;20287;-77
2024/04/01 10:25:48;;;;;;;2.50;2.30;;;15.70;65.60;17.10;99406.00;;;;5014944;28;20596;-77
2024/04/01 10:29:01;;;;;;;2.88;2.30;;;15.70;65.70;17.10;99411.00;;;;5029011;28;20197;-77
2024/04/01 10:32:39;;;;;;;2.70;2.45;;;15.60;65.50;17.10;99409.00;;;;5012929;28;20208;-76
2024/04/01 10:35:32;;;;;;;3.33;2.15;;;15.60;65.60;17.10;99406.00;;;;4996360;28;20209;-77
2024/04/01 10:38:32;;;;;;;3.22;2.50;;;15.60;65.80;17.10;99410.00;;;;5013988;28;20569;-78
2024/04/01 10:41:40;;;;;;;4.25;2.80;;;15.50;65.80;17.10;99415.00;;;;5014007;28;20662;-78
2024/04/01 10:45:19;;;;;;;4.10;2.75;;;15.50;65.80;17.10;99420.00;;;;5019176;28;20706;-79
2024/04/01 10:48:16;;;;;;;3.90;2.42;;;15.50;65.70;17.00;99420.00;;;;4994237;28;20201;-77
2024/04/01 10:51:31;;;;;;;4.32;2.63;;;15.50;65.60;17.00;99426.00;;;;4994165;28;20206;-81
2024/04/01 10:54:05;;;;;;;3.20;2.22;;;15.50;65.60;17.00;99429.00;;;;4993817;28;20213;-77
2024/04/01 10:57:44;;;;;;;3.92;2.70;;;15.50;65.50;17.00;99429.00;;;;4994162;28;20218;-77
2024/04/01 11:00:43;;;;;;;2.70;2.35;;;15.50;65.50;17.00;99436.00;;;;4919338;29;20315;-78
2024/04/01 11:04:18;;;;;;;3.45;2.20;;;15.50;65.50;17.00;99436.00;;;;5008185;28;20685;-78
2024/04/01 11:07:17;;;;;;;3.67;2.00;;;15.50;65.40;17.00;99435.00;;;;5011461;28;20630;-78
2024/04/01 11:10:09;;;;;;;3.72;2.38;;;15.40;65.30;16.90;99434.00;;;;5012154;28;20228;-77
2024/04/01 11:12:48;;;;;;;3.47;1.85;;;15.40;65.20;17.00;99440.00;;;;5013371;28;20207;-78